createdAt,value
2022-10-13T00:01:08.936Z,95366.13
2022-10-13T00:03:37.202Z,95366.56
2022-10-13T00:06:07.346Z,95363.25
2022-10-13T00:08:35.200Z,95362.16
2022-10-13T00:11:02.237Z,95362.44
2022-10-13T00:13:29.956Z,95362.28
2022-10-13T00:15:56.950Z,95363.16
2022-10-13T00:18:24.025Z,95354.88
2022-10-13T00:20:51.295Z,95359.78
2022-10-13T00:23:18.699Z,95352.56
2022-10-13T00:25:50.062Z,95350.72
2022-10-13T00:28:19.911Z,95350.25
2022-10-13T00:30:47.376Z,95347.34
2022-10-13T00:33:14.972Z,95340.34
2022-10-13T00:35:49.266Z,95343.84
2022-10-13T00:38:20.377Z,95334.69
2022-10-13T00:40:55.620Z,95340.63
2022-10-13T00:43:28.406Z,95337.75
2022-10-13T00:45:55.321Z,95331.31
2022-10-13T00:48:31.168Z,95331.59
2022-10-13T00:50:58.930Z,95331.03
2022-10-13T00:53:30.804Z,95332.13
2022-10-13T00:55:57.868Z,95329.38
2022-10-13T00:58:26.645Z,95333.94
2022-10-13T01:00:54.068Z,95326.66
2022-10-13T01:03:21.932Z,95324.50
2022-10-13T01:05:51.468Z,95328.25
2022-10-13T01:08:20.362Z,95327.22
2022-10-13T01:11:23.011Z,95318.06
2022-10-13T01:14:23.776Z,95321.78
2022-10-13T01:17:14.746Z,95318.06
2022-10-13T01:20:24.942Z,95329.94
2022-10-13T01:23:12.656Z,95323.06
2022-10-13T01:26:06.573Z,95328.72
2022-10-13T01:29:37.210Z,95330.09
2022-10-13T01:32:35.033Z,95338.69
2022-10-13T01:35:34.745Z,95327.91
2022-10-13T01:38:37.433Z,95330.09
2022-10-13T01:41:22.640Z,95331.75
2022-10-13T01:43:56.438Z,95340.38
2022-10-13T01:46:28.016Z,95340.91
2022-10-13T01:48:59.034Z,95335.00
2022-10-13T01:51:28.366Z,95327.78
2022-10-13T01:53:55.413Z,95330.78
2022-10-13T01:56:22.341Z,95327.56
2022-10-13T01:58:51.454Z,95321.66
2022-10-13T02:01:33.125Z,95325.16
2022-10-13T02:04:47.512Z,95319.25
2022-10-13T02:07:43.030Z,95321.16
2022-10-13T02:10:36.596Z,95327.63
2022-10-13T02:13:06.362Z,95316.06
2022-10-13T02:15:37.361Z,95315.25
2022-10-13T02:18:10.473Z,95308.50
2022-10-13T02:20:37.638Z,95302.56
2022-10-13T02:23:08.927Z,95308.72
2022-10-13T02:25:35.996Z,95306.03
2022-10-13T02:28:03.141Z,95309.25
2022-10-13T02:30:33.551Z,95297.63
2022-10-13T02:33:02.024Z,95296.25
2022-10-13T02:35:30.095Z,95296.78
2022-10-13T02:38:01.349Z,95302.16
2022-10-13T02:40:28.711Z,95298.97
2022-10-13T02:42:55.758Z,95290.38
2022-10-13T02:45:23.188Z,95289.34
2022-10-13T02:47:52.236Z,95290.72
2022-10-13T02:50:19.323Z,95283.75
2022-10-13T02:52:46.243Z,95285.06
2022-10-13T02:55:13.223Z,95283.47
2022-10-13T02:57:41.786Z,95275.69
2022-10-13T03:00:09.441Z,95288.31
2022-10-13T03:02:36.306Z,95281.84
2022-10-13T03:05:03.608Z,95288.31
2022-10-13T03:07:30.654Z,95293.47
2022-10-13T03:09:57.623Z,95290.03
2022-10-13T03:12:24.620Z,95293.22
2022-10-13T03:14:51.498Z,95297.53
2022-10-13T03:17:18.641Z,95300.16
2022-10-13T03:19:45.555Z,95292.78
2022-10-13T03:22:17.682Z,95311.09
2022-10-13T03:24:45.521Z,95302.25
2022-10-13T03:27:12.430Z,95301.72
2022-10-13T03:29:39.309Z,95295.00
2022-10-13T03:32:06.233Z,95308.97
2022-10-13T03:34:33.253Z,95308.22
2022-10-13T03:37:00.178Z,95306.38
2022-10-13T03:39:32.250Z,95304.56
2022-10-13T03:41:59.192Z,95305.94
2022-10-13T03:44:26.171Z,95298.16
2022-10-13T03:46:53.146Z,95302.97
2022-10-13T03:49:20.165Z,95301.06
2022-10-13T03:51:47.686Z,95293.78
2022-10-13T03:54:14.945Z,95293.50
2022-10-13T03:56:44.743Z,95292.94
2022-10-13T03:59:13.156Z,95294.56
2022-10-13T04:01:40.404Z,95290.78
2022-10-13T04:04:09.347Z,95286.44
2022-10-13T04:06:37.853Z,95285.88
2022-10-13T04:09:04.854Z,95291.53
2022-10-13T04:11:31.870Z,95293.75
2022-10-13T04:13:59.101Z,95295.69
2022-10-13T04:16:29.211Z,95294.34
2022-10-13T04:19:02.875Z,95294.34
2022-10-13T04:21:31.385Z,95289.50
2022-10-13T04:23:59.204Z,95289.50
2022-10-13T04:26:28.714Z,95286.28
2022-10-13T04:28:56.049Z,95280.91
2022-10-13T04:31:24.205Z,95281.44
2022-10-13T04:33:51.614Z,95285.22
2022-10-13T04:36:19.719Z,95280.41
2022-10-13T04:38:50.281Z,95288.75
2022-10-13T04:41:18.775Z,95279.91
2022-10-13T04:43:52.793Z,95283.38
2022-10-13T04:46:26.331Z,95293.34
2022-10-13T04:48:55.699Z,95286.88
2022-10-13T04:51:29.044Z,95289.56
2022-10-13T04:54:01.231Z,95289.00
2022-10-13T04:56:28.765Z,95294.38
2022-10-13T04:59:00.120Z,95292.22
2022-10-13T05:01:27.271Z,95300.81
2022-10-13T05:04:00.111Z,95291.97
2022-10-13T05:06:30.466Z,95299.19
2022-10-13T05:08:57.697Z,95303.50
2022-10-13T05:11:26.793Z,95305.06
2022-10-13T05:13:54.387Z,95302.56
2022-10-13T05:16:22.416Z,95304.16
2022-10-13T05:18:50.506Z,95302.72
2022-10-13T05:21:21.049Z,95307.28
2022-10-13T05:23:48.101Z,95307.53
2022-10-13T05:26:17.414Z,95319.72
2022-10-13T05:28:45.196Z,95319.22
2022-10-13T05:31:17.893Z,95316.53
2022-10-13T05:33:46.149Z,95310.25
2022-10-13T05:36:25.885Z,95323.09
2022-10-13T05:38:54.803Z,95325.72
2022-10-13T05:41:23.262Z,95344.22
2022-10-13T05:43:57.411Z,95336.94
2022-10-13T05:46:24.838Z,95337.38
2022-10-13T05:48:51.813Z,95336.38
2022-10-13T05:51:35.438Z,95345.75
2022-10-13T05:54:23.088Z,95344.63
2022-10-13T05:57:11.663Z,95353.22
2022-10-13T05:59:42.743Z,95359.13
2022-10-13T06:02:14.165Z,95348.09
2022-10-13T06:04:47.799Z,95347.81
2022-10-13T06:07:14.882Z,95340.75
2022-10-13T06:09:42.212Z,95343.91
2022-10-13T06:12:09.885Z,95343.84
2022-10-13T06:14:37.192Z,95342.63
2022-10-13T06:17:07.072Z,95350.13
2022-10-13T06:19:34.021Z,95346.22
2022-10-13T06:22:07.751Z,95341.25
2022-10-13T06:24:37.802Z,95345.16
2022-10-13T06:27:08.237Z,95344.69
2022-10-13T06:29:36.555Z,95344.25
2022-10-13T06:32:03.974Z,95351.19
2022-10-13T06:34:30.922Z,95345.97
2022-10-13T06:36:58.434Z,95340.50
2022-10-13T06:39:26.514Z,95339.91
2022-10-13T06:41:55.203Z,95345.31
2022-10-13T06:44:31.797Z,95344.72
2022-10-13T06:47:03.435Z,95340.09
2022-10-13T06:49:30.452Z,95336.81
2022-10-13T06:51:57.439Z,95334.81
2022-10-13T06:54:24.446Z,95338.03
2022-10-13T06:56:52.123Z,95335.53
2022-10-13T06:59:19.437Z,95332.88
2022-10-13T07:01:47.937Z,95337.53
2022-10-13T07:04:16.163Z,95335.25
2022-10-13T07:06:43.200Z,95341.69
2022-10-13T07:09:10.489Z,95331.31
2022-10-13T07:11:37.637Z,95331.38
2022-10-13T07:14:04.610Z,95326.97
2022-10-13T07:16:32.316Z,95333.03
2022-10-13T07:18:59.279Z,95331.63
2022-10-13T07:21:26.539Z,95333.22
2022-10-13T07:23:53.543Z,95337.81
2022-10-13T07:26:20.843Z,95342.13
2022-10-13T07:28:47.939Z,95347.22
2022-10-13T07:31:17.020Z,95338.81
2022-10-13T07:33:47.090Z,95341.59
2022-10-13T07:36:16.907Z,95348.63
2022-10-13T07:38:44.031Z,95336.50
2022-10-13T07:41:11.853Z,95345.44
2022-10-13T07:43:39.212Z,95335.44
2022-10-13T07:46:07.870Z,95331.06
2022-10-13T07:48:35.332Z,95330.03
2022-10-13T07:51:11.725Z,95336.03
2022-10-13T07:53:39.767Z,95332.28
2022-10-13T07:56:09.082Z,95335.88
2022-10-13T07:58:41.021Z,95338.69
2022-10-13T08:01:08.884Z,95333.66
2022-10-13T08:03:40.184Z,95326.44
2022-10-13T08:06:09.976Z,95335.84
2022-10-13T08:08:37.094Z,95328.91
2022-10-13T08:11:14.665Z,95325.06
2022-10-13T08:13:46.994Z,95331.22
2022-10-13T08:16:16.867Z,95330.00
2022-10-13T08:18:43.814Z,95320.53
2022-10-13T08:24:02.301Z,95312.81
2022-10-13T08:26:29.611Z,95307.81
2022-10-13T08:29:20.767Z,95309.44
2022-10-13T08:31:44.443Z,95312.50
2022-10-13T08:34:11.890Z,95306.81
2022-10-13T08:36:39.713Z,95312.25
2022-10-13T08:39:07.266Z,95300.50
2022-10-13T08:41:39.907Z,95297.00
2022-10-13T08:47:28.279Z,95289.41
2022-10-13T08:50:02.544Z,95298.25
2022-10-13T08:53:02.186Z,95280.59
2022-10-13T08:56:07.861Z,95278.03
2022-10-13T08:58:37.405Z,95278.84
2022-10-13T09:01:28.419Z,95269.38
2022-10-13T09:04:36.542Z,95275.16
2022-10-13T09:07:15.939Z,95264.41
2022-10-13T09:09:43.516Z,95265.63
2022-10-13T09:12:13.586Z,95268.47
2022-10-13T09:14:41.447Z,95268.28
2022-10-13T09:17:18.111Z,95267.44
2022-10-13T09:19:57.084Z,95251.13
2022-10-13T09:22:36.468Z,95256.88
2022-10-13T09:25:29.897Z,95248.66
2022-10-13T09:28:01.945Z,95246.31
2022-10-13T09:30:44.322Z,95236.34
2022-10-13T09:33:24.990Z,95250.72
2022-10-13T09:36:21.205Z,95243.56
2022-10-13T09:39:15.601Z,95239.78
2022-10-13T09:41:44.818Z,95243.19
2022-10-13T09:44:16.796Z,95242.00
2022-10-13T09:46:56.631Z,95242.13
2022-10-13T09:49:44.364Z,95232.72
2022-10-13T09:52:19.639Z,95230.38
2022-10-13T09:54:51.223Z,95224.59
2022-10-13T09:57:57.482Z,95229.22
2022-10-13T10:00:27.640Z,95228.56
2022-10-13T10:03:27.019Z,95222.69
2022-10-13T10:05:57.254Z,95217.34
2022-10-13T10:09:05.050Z,95207.19
2022-10-13T10:11:41.595Z,95212.78
2022-10-13T10:14:24.083Z,95200.34
2022-10-13T10:17:02.634Z,95199.13
2022-10-13T10:20:10.982Z,95200.59
2022-10-13T10:22:56.412Z,95190.72
2022-10-13T10:25:33.490Z,95185.09
2022-10-13T10:28:58.793Z,95193.56
2022-10-13T10:32:00.684Z,95183.56
2022-10-13T10:34:53.868Z,95182.19
2022-10-13T10:38:03.715Z,95183.78
2022-10-13T10:40:49.347Z,95178.44
2022-10-13T10:43:47.084Z,95173.25
2022-10-13T10:46:30.785Z,95166.69
2022-10-13T10:49:02.208Z,95163.81
2022-10-13T10:51:34.161Z,95162.78
2022-10-13T10:54:33.167Z,95144.59
2022-10-13T10:57:56.172Z,95146.31
2022-10-13T11:00:23.850Z,95139.03
2022-10-13T11:03:24.731Z,95135.16
2022-10-13T11:06:06.289Z,95137.25
2022-10-13T11:08:46.923Z,95125.16
2022-10-13T11:11:41.561Z,95120.03
2022-10-13T11:14:27.112Z,95115.59
2022-10-13T11:17:16.920Z,95122.13
2022-10-13T11:19:44.665Z,95116.28
2022-10-13T11:22:14.772Z,95112.50
2022-10-13T11:24:47.889Z,95106.34
2022-10-13T11:27:43.966Z,95106.78
2022-10-13T11:30:40.866Z,95102.00
2022-10-13T11:33:55.407Z,95096.41
2022-10-13T11:36:58.221Z,95090.34
2022-10-13T11:39:42.325Z,95084.63
2022-10-13T11:42:30.989Z,95076.78
2022-10-13T11:45:25.036Z,95071.88
2022-10-13T11:48:42.488Z,95083.19
2022-10-13T11:51:31.354Z,95066.53
2022-10-13T11:54:30.615Z,95074.25
2022-10-13T11:56:58.526Z,95071.28
2022-10-13T11:59:29.432Z,95060.72
2022-10-13T12:01:58.512Z,95067.88
2022-10-13T12:04:28.062Z,95065.16
2022-10-13T12:07:01.990Z,95058.22
2022-10-13T12:09:31.744Z,95060.28
2022-10-13T12:12:04.637Z,95056.09
2022-10-13T12:14:39.873Z,95053.72
2022-10-13T12:17:46.086Z,95046.03
2022-10-13T12:20:28.509Z,95053.97
2022-10-13T12:22:56.546Z,95045.78
2022-10-13T12:25:29.648Z,95044.06
2022-10-13T12:28:00.443Z,95058.28
2022-10-13T12:30:36.395Z,95051.63
2022-10-13T12:33:18.857Z,95048.91
2022-10-13T12:35:45.906Z,95053.78
2022-10-13T12:38:19.695Z,95036.50
2022-10-13T12:40:49.631Z,95040.50
2022-10-13T12:43:20.301Z,95031.53
2022-10-13T12:45:49.256Z,95028.03
2022-10-13T12:48:36.997Z,95018.69
2022-10-13T12:51:23.535Z,95021.09
2022-10-13T12:53:50.462Z,95028.22
2022-10-13T12:56:30.900Z,95017.97
2022-10-13T12:58:59.115Z,95014.03
2022-10-13T13:01:32.369Z,95020.31
2022-10-13T13:04:02.806Z,95015.56
2022-10-13T13:06:36.235Z,95012.41
2022-10-13T13:09:28.382Z,95006.53
2022-10-13T13:12:22.857Z,95005.34
2022-10-13T13:14:55.390Z,95006.94
2022-10-13T13:17:52.965Z,94998.19
2022-10-13T13:20:36.284Z,95002.78
2022-10-13T13:23:04.142Z,95009.00
2022-10-13T13:25:31.221Z,94998.34
2022-10-13T13:27:59.627Z,94997.91
2022-10-13T13:30:26.810Z,95001.03
2022-10-13T13:32:53.838Z,95002.50
2022-10-13T13:35:20.783Z,95001.59
2022-10-13T13:37:50.654Z,95000.69
2022-10-13T13:40:24.066Z,95004.53
2022-10-13T13:42:51.571Z,95005.97
2022-10-13T13:45:23.055Z,95001.97
2022-10-13T13:47:51.699Z,94998.75
2022-10-13T13:50:25.550Z,94993.53
2022-10-13T13:52:58.465Z,94992.59
2022-10-13T13:55:27.148Z,95000.25
2022-10-13T13:57:54.059Z,94993.00
2022-10-13T14:00:21.723Z,94988.22
2022-10-13T14:02:55.237Z,94990.81
2022-10-13T14:05:22.367Z,94988.75
2022-10-13T14:07:49.481Z,94991.41
2022-10-13T14:10:16.536Z,94982.66
2022-10-13T14:12:43.561Z,94980.91
2022-10-13T14:15:11.251Z,94980.66
2022-10-13T14:17:38.107Z,94975.28
2022-10-13T14:20:05.846Z,94976.94
2022-10-13T14:22:40.372Z,94972.69
2022-10-13T14:25:08.040Z,94976.03
2022-10-13T14:27:35.516Z,94975.44
2022-10-13T14:30:05.551Z,94976.06
2022-10-13T14:32:32.818Z,94980.22
2022-10-13T14:34:59.838Z,94980.44
2022-10-13T14:37:31.843Z,94978.28
2022-10-13T14:40:00.487Z,94977.72
2022-10-13T14:42:27.507Z,94976.72
2022-10-13T14:44:54.509Z,94983.94
2022-10-13T14:47:21.977Z,94977.25
2022-10-13T14:49:49.112Z,94981.91
2022-10-13T14:52:16.078Z,94973.97
2022-10-13T14:54:45.060Z,94973.09
2022-10-13T14:57:16.392Z,94975.84
2022-10-13T14:59:43.408Z,94976.25
2022-10-13T15:02:14.051Z,94977.41
2022-10-13T15:04:51.154Z,94985.78
2022-10-13T15:07:18.907Z,94980.56
2022-10-13T15:09:52.680Z,94972.97
2022-10-13T15:12:21.010Z,94990.13
2022-10-13T15:14:48.281Z,94987.56
2022-10-13T15:17:15.167Z,94979.22
2022-10-13T15:19:42.304Z,94976.34
2022-10-13T15:22:09.936Z,94989.47
2022-10-13T15:24:36.927Z,94987.34
2022-10-13T15:27:04.050Z,94987.28
2022-10-13T15:29:32.277Z,94987.03
2022-10-13T15:32:12.127Z,94989.03
2022-10-13T15:34:40.103Z,94982.50
2022-10-13T15:37:07.649Z,94982.59
2022-10-13T15:39:34.809Z,94987.53
2022-10-13T15:42:01.963Z,94988.22
2022-10-13T15:44:40.298Z,94977.28
2022-10-13T15:47:17.354Z,94979.06
2022-10-13T15:49:44.357Z,94971.84
2022-10-13T15:52:11.335Z,94983.25
2022-10-13T15:54:38.327Z,94979.19
2022-10-13T15:57:05.270Z,94982.19
2022-10-13T15:59:32.236Z,94986.75
2022-10-13T16:01:59.161Z,94986.53
2022-10-13T16:04:26.191Z,94992.22
2022-10-13T16:06:53.130Z,94983.25
2022-10-13T16:09:20.003Z,94992.56
2022-10-13T16:11:46.936Z,94987.47
2022-10-13T16:14:13.926Z,94990.91
2022-10-13T16:16:40.959Z,94991.47
2022-10-13T16:19:07.958Z,94989.09
2022-10-13T16:21:34.910Z,94996.03
2022-10-13T16:24:05.309Z,95005.25
2022-10-13T16:26:32.188Z,94999.78
2022-10-13T16:28:59.122Z,94995.47
2022-10-13T16:31:26.197Z,94998.91
2022-10-13T16:33:53.153Z,94993.00
2022-10-13T16:36:20.539Z,94993.34
2022-10-13T16:38:52.180Z,95003.09
2022-10-13T16:41:19.178Z,95002.09
2022-10-13T16:43:47.256Z,94995.69
2022-10-13T16:46:16.873Z,95000.03
2022-10-13T16:48:44.810Z,95000.50
2022-10-13T16:51:18.073Z,94998.91
2022-10-13T16:53:48.967Z,94994.38
2022-10-13T16:56:16.298Z,94997.19
2022-10-13T16:58:45.365Z,94997.88
2022-10-13T17:01:13.243Z,94997.53
2022-10-13T17:03:40.564Z,95001.63
2022-10-13T17:06:07.810Z,95005.72
2022-10-13T17:08:34.874Z,94996.41
2022-10-13T17:11:03.635Z,95003.00
2022-10-13T17:13:32.435Z,94999.34
2022-10-13T17:15:59.771Z,95003.56
2022-10-13T17:18:27.730Z,94994.03
2022-10-13T17:20:59.875Z,94996.53
2022-10-13T17:23:28.044Z,94993.91
2022-10-13T17:25:55.961Z,94991.75
2022-10-13T17:28:23.198Z,94991.53
2022-10-13T17:31:18.597Z,94988.31
2022-10-13T17:33:46.907Z,94992.06
2022-10-13T17:36:22.775Z,94992.75
2022-10-13T17:38:50.217Z,94989.56
2022-10-13T17:41:18.266Z,94996.50
2022-10-13T17:43:49.995Z,94997.75
2022-10-13T17:46:40.586Z,94986.41
2022-10-13T17:49:11.131Z,94987.72
2022-10-13T17:51:38.872Z,94986.66
2022-10-13T17:54:08.250Z,94987.34
2022-10-13T17:56:38.539Z,94985.75
2022-10-13T17:59:05.453Z,94992.38
2022-10-13T18:01:35.023Z,94984.94
2022-10-13T18:04:07.060Z,94982.09
2022-10-13T18:06:40.026Z,94985.25
2022-10-13T18:09:18.789Z,94989.16
2022-10-13T18:11:50.673Z,94992.34
2022-10-13T18:14:23.623Z,94991.22
2022-10-13T18:16:52.157Z,94994.38
2022-10-13T18:19:21.571Z,94990.47
2022-10-13T18:21:48.840Z,94994.19
2022-10-13T18:24:16.021Z,94995.66
2022-10-13T18:26:43.033Z,94992.78
2022-10-13T18:29:11.600Z,94990.75
2022-10-13T18:31:40.238Z,94999.25
2022-10-13T18:34:10.594Z,95004.56
2022-10-13T18:36:43.229Z,95002.84
2022-10-13T18:39:18.524Z,95010.53
2022-10-13T18:41:48.544Z,95003.06
2022-10-13T18:44:15.958Z,95001.13
2022-10-13T18:46:43.308Z,95004.16
2022-10-13T18:49:15.041Z,95005.50
2022-10-13T18:51:43.342Z,94999.16
2022-10-13T18:54:10.999Z,95001.53
2022-10-13T18:56:38.201Z,95006.38
2022-10-13T18:59:07.033Z,95005.13
2022-10-13T19:01:35.820Z,95006.44
2022-10-13T19:04:03.883Z,95002.31
2022-10-13T19:06:32.480Z,95003.00
2022-10-13T19:09:02.280Z,95001.88
2022-10-13T19:11:30.227Z,95000.44
2022-10-13T19:13:58.686Z,95001.75
2022-10-13T19:16:28.963Z,95002.41
2022-10-13T19:18:56.174Z,94998.91
2022-10-13T19:21:23.919Z,94993.81
2022-10-13T19:23:51.141Z,95002.16
2022-10-13T19:26:27.046Z,94993.72
2022-10-13T19:29:00.240Z,94998.97
2022-10-13T19:31:30.099Z,94993.66
2022-10-13T19:33:59.853Z,94997.97
2022-10-13T19:36:33.230Z,94993.22
2022-10-13T19:39:05.596Z,94986.06
2022-10-13T19:41:33.016Z,94993.47
2022-10-13T19:44:00.035Z,94987.06
2022-10-13T19:46:36.066Z,94988.41
2022-10-13T19:49:04.333Z,94992.22
2022-10-13T19:51:31.635Z,94994.94
2022-10-13T19:53:58.599Z,95001.50
2022-10-13T19:56:28.752Z,94995.88
2022-10-13T19:58:55.654Z,94992.38
2022-10-13T20:01:22.836Z,95001.63
2022-10-13T20:03:50.556Z,94995.09
2022-10-13T20:06:18.267Z,94986.59
2022-10-13T20:08:45.647Z,94989.06
2022-10-13T20:11:19.327Z,94995.78
2022-10-13T20:13:49.276Z,94990.19
2022-10-13T20:16:18.337Z,94999.78
2022-10-13T20:18:45.635Z,94994.66
2022-10-13T20:21:13.317Z,94994.03
2022-10-13T20:23:43.156Z,94984.81
2022-10-13T20:26:12.759Z,94988.78
2022-10-13T20:28:43.093Z,94989.41
2022-10-13T20:31:10.976Z,94979.38
2022-10-13T20:33:38.037Z,94973.75
2022-10-13T20:36:11.485Z,94984.63
2022-10-13T20:38:38.907Z,94979.56
2022-10-13T20:41:15.838Z,94980.00
2022-10-13T20:43:42.939Z,94973.41
2022-10-13T20:46:09.976Z,94969.94
2022-10-13T20:49:05.097Z,94964.22
2022-10-13T20:51:26.296Z,94964.88
2022-10-13T20:53:53.413Z,94958.47
2022-10-13T20:56:23.092Z,94963.28
2022-10-13T20:58:51.326Z,94959.22
2022-10-13T21:01:20.235Z,94965.56
2022-10-13T21:03:47.258Z,94961.09
2022-10-13T21:06:14.840Z,94954.22
2022-10-13T21:08:45.326Z,94954.56
2022-10-13T21:11:14.463Z,94961.09
2022-10-13T21:13:42.845Z,94956.59
2022-10-13T21:16:15.371Z,94952.47
2022-10-13T21:18:50.692Z,94955.72
2022-10-13T21:21:23.904Z,94952.34
2022-10-13T21:23:55.587Z,94953.28
2022-10-13T21:26:23.983Z,94948.63
2022-10-13T21:28:51.495Z,94944.22
2022-10-13T21:31:20.833Z,94939.91
2022-10-13T21:33:48.073Z,94935.78
2022-10-13T21:36:29.512Z,94931.50
2022-10-13T21:38:58.689Z,94935.00
2022-10-13T21:41:26.226Z,94934.72
2022-10-13T21:43:53.877Z,94933.91
2022-10-13T21:46:24.027Z,94925.81
2022-10-13T21:48:55.708Z,94925.28
2022-10-13T21:51:29.607Z,94922.22
2022-10-13T21:54:02.339Z,94920.16
2022-10-13T21:56:30.677Z,94926.25
2022-10-13T21:58:59.235Z,94924.00
2022-10-13T22:01:26.457Z,94921.63
2022-10-13T22:03:56.374Z,94916.69
2022-10-13T22:06:26.662Z,94916.84
2022-10-13T22:08:55.090Z,94913.81
2022-10-13T22:11:24.890Z,94915.63
2022-10-13T22:13:52.132Z,94917.25
2022-10-13T22:16:24.626Z,94905.94
2022-10-13T22:18:53.186Z,94914.38
2022-10-13T22:21:23.088Z,94918.50
2022-10-13T22:23:50.139Z,94928.38
2022-10-13T22:26:18.699Z,94919.59
2022-10-13T22:28:48.276Z,94923.25
2022-10-13T22:31:15.420Z,94917.41
2022-10-13T22:33:43.344Z,94918.69
2022-10-13T22:36:17.086Z,94913.38
2022-10-13T22:38:46.240Z,94911.94
2022-10-13T22:41:14.900Z,94913.59
2022-10-13T22:43:46.739Z,94908.31
2022-10-13T22:46:15.936Z,94910.72
2022-10-13T22:48:43.015Z,94908.28
2022-10-13T22:51:13.718Z,94904.34
2022-10-13T22:53:40.681Z,94901.31
2022-10-13T22:56:14.094Z,94904.03
2022-10-13T22:58:41.223Z,94899.06
2022-10-13T23:01:14.033Z,94904.50
2022-10-13T23:03:42.164Z,94908.78
2022-10-13T23:06:13.947Z,94907.69
2022-10-13T23:08:41.502Z,94902.22
2022-10-13T23:11:08.430Z,94898.91
2022-10-13T23:13:35.448Z,94893.59
2022-10-13T23:16:10.922Z,94901.53
2022-10-13T23:18:38.881Z,94897.13
2022-10-13T23:21:07.378Z,94899.22
2022-10-13T23:23:35.071Z,94900.06
2022-10-13T23:26:20.318Z,94905.13
2022-10-13T23:28:47.383Z,94904.66
2022-10-13T23:31:17.204Z,94904.03
2022-10-13T23:33:44.933Z,94906.09
2022-10-13T23:36:18.178Z,94904.50
2022-10-13T23:38:48.079Z,94905.31
2022-10-13T23:41:16.484Z,94917.25
2022-10-13T23:43:43.930Z,94915.00
2022-10-13T23:46:11.270Z,94909.91
2022-10-13T23:48:39.662Z,94916.31
2022-10-13T23:51:15.980Z,94912.13
2022-10-13T23:53:43.286Z,94915.34
2022-10-13T23:56:11.437Z,94914.69
2022-10-13T23:58:39.939Z,94913.06
